createdAt,value
2022-11-09T00:02:05.621Z,17.65
2022-11-09T00:04:35.779Z,22.95
2022-11-09T00:07:09.013Z,25.15
2022-11-09T00:09:45.018Z,26.10
2022-11-09T00:12:15.244Z,22.13
2022-11-09T00:14:45.937Z,28.55
2022-11-09T00:17:16.089Z,20.63
2022-11-09T00:19:47.986Z,19.65
2022-11-09T00:22:18.136Z,21.48
2022-11-09T00:24:50.968Z,17.02
2022-11-09T00:27:23.835Z,19.20
2022-11-09T00:29:53.967Z,16.73
2022-11-09T00:32:28.068Z,19.92
2022-11-09T00:34:58.284Z,21.60
2022-11-09T00:37:29.228Z,16.58
2022-11-09T00:40:04.699Z,23.60
2022-11-09T00:42:37.206Z,14.55
2022-11-09T00:45:08.047Z,16.25
2022-11-09T00:47:38.155Z,15.38
2022-11-09T00:50:09.395Z,16.25
2022-11-09T00:52:39.804Z,17.60
2022-11-09T00:55:12.773Z,19.55
2022-11-09T00:57:42.896Z,18.30
2022-11-09T01:00:15.608Z,17.55
2022-11-09T01:02:48.619Z,15.18
2022-11-09T01:05:25.871Z,18.45
2022-11-09T01:07:55.916Z,17.67
2022-11-09T01:10:28.903Z,16.52
2022-11-09T01:12:59.020Z,16.85
2022-11-09T01:15:31.872Z,19.00
2022-11-09T01:18:02.047Z,19.85
2022-11-09T01:20:32.144Z,13.93
2022-11-09T01:23:03.221Z,20.83
2022-11-09T01:25:39.801Z,19.48
2022-11-09T01:28:10.870Z,17.83
2022-11-09T01:30:46.110Z,15.10
2022-11-09T01:33:16.394Z,17.08
2022-11-09T01:35:46.648Z,15.70
2022-11-09T01:38:18.812Z,14.00
2022-11-09T01:40:51.699Z,17.42
2022-11-09T01:43:25.412Z,17.20
2022-11-09T01:45:58.601Z,17.13
2022-11-09T01:48:37.548Z,16.17
2022-11-09T01:51:14.123Z,14.77
2022-11-09T01:53:48.940Z,12.73
2022-11-09T01:56:23.185Z,13.02
2022-11-09T01:58:57.806Z,15.98
2022-11-09T02:01:28.595Z,13.88
2022-11-09T02:04:04.173Z,15.90
2022-11-09T02:06:35.860Z,14.10
2022-11-09T02:09:15.489Z,15.07
2022-11-09T02:11:53.763Z,16.95
2022-11-09T02:14:25.443Z,15.10
2022-11-09T02:16:58.196Z,16.50
2022-11-09T02:19:30.661Z,14.75
2022-11-09T02:22:06.703Z,11.77
2022-11-09T02:24:37.108Z,14.15
2022-11-09T02:27:09.431Z,10.82
2022-11-09T02:29:44.102Z,11.13
2022-11-09T02:32:23.259Z,12.32
2022-11-09T02:34:53.309Z,16.10
2022-11-09T02:37:39.491Z,13.52
2022-11-09T02:40:19.586Z,15.55
2022-11-09T02:42:52.493Z,13.80
2022-11-09T02:45:22.588Z,16.95
2022-11-09T02:47:54.852Z,14.85
2022-11-09T02:50:25.446Z,14.80
2022-11-09T02:52:58.243Z,14.57
2022-11-09T02:55:28.564Z,22.42
2022-11-09T02:58:01.498Z,12.95
2022-11-09T03:00:41.047Z,13.20
2022-11-09T03:03:14.545Z,12.85
2022-11-09T03:05:49.752Z,12.38
2022-11-09T03:08:37.260Z,12.63
2022-11-09T03:11:09.976Z,12.25
2022-11-09T03:13:49.425Z,13.00
2022-11-09T03:16:19.572Z,17.90
2022-11-09T03:18:49.773Z,16.60
2022-11-09T03:21:19.831Z,19.85
2022-11-09T03:23:56.932Z,21.70
2022-11-09T03:26:26.933Z,20.48
2022-11-09T03:29:00.445Z,19.15
2022-11-09T03:31:30.528Z,23.08
2022-11-09T03:34:00.604Z,24.90
2022-11-09T03:36:30.622Z,31.58
2022-11-09T03:39:03.652Z,31.13
2022-11-09T03:41:33.785Z,31.77
2022-11-09T03:44:04.203Z,21.40
2022-11-09T03:46:34.528Z,27.05
2022-11-09T03:49:07.764Z,19.48
2022-11-09T03:51:37.892Z,14.48
2022-11-09T03:54:10.831Z,17.25
2022-11-09T03:56:41.296Z,14.68
2022-11-09T03:59:13.909Z,16.95
2022-11-09T04:01:45.610Z,19.23
2022-11-09T04:04:18.560Z,21.38
2022-11-09T04:06:48.741Z,21.40
2022-11-09T04:09:22.575Z,19.30
2022-11-09T04:11:52.573Z,34.25
2022-11-09T04:14:22.765Z,28.08
2022-11-09T04:16:55.835Z,17.83
2022-11-09T04:19:25.970Z,21.60
2022-11-09T04:21:56.098Z,19.98
2022-11-09T04:24:29.624Z,21.38
2022-11-09T04:26:59.688Z,22.92
2022-11-09T04:29:29.845Z,17.73
2022-11-09T04:32:00.218Z,15.00
2022-11-09T04:34:30.366Z,17.35
2022-11-09T04:37:02.692Z,19.75
2022-11-09T04:39:37.022Z,21.92
2022-11-09T04:42:11.403Z,22.52
2022-11-09T04:44:44.182Z,20.60
2022-11-09T04:47:14.216Z,23.02
2022-11-09T04:49:44.596Z,18.70
2022-11-09T04:52:14.769Z,18.23
2022-11-09T04:54:47.905Z,17.15
2022-11-09T04:57:17.991Z,18.23
2022-11-09T04:59:48.152Z,20.58
2022-11-09T05:02:19.389Z,16.95
2022-11-09T05:04:52.331Z,18.63
2022-11-09T05:07:22.544Z,21.08
2022-11-09T05:10:01.262Z,15.00
2022-11-09T05:12:31.419Z,22.52
2022-11-09T05:15:01.568Z,18.23
2022-11-09T05:17:31.692Z,12.60
2022-11-09T05:20:02.572Z,15.30
2022-11-09T05:22:48.111Z,16.77
2022-11-09T05:25:20.828Z,17.45
2022-11-09T05:27:50.846Z,19.75
2022-11-09T05:30:21.678Z,17.40
2022-11-09T05:32:51.752Z,15.13
2022-11-09T05:35:24.703Z,15.00
2022-11-09T05:37:55.075Z,16.80
2022-11-09T05:40:27.943Z,16.63
2022-11-09T05:42:58.749Z,15.05
2022-11-09T05:45:44.578Z,12.80
2022-11-09T05:48:16.002Z,12.32
2022-11-09T05:50:47.137Z,13.45
2022-11-09T05:53:17.488Z,14.88
2022-11-09T05:55:50.464Z,16.67
2022-11-09T05:58:20.764Z,13.13
2022-11-09T06:00:51.053Z,18.98
2022-11-09T06:03:21.337Z,15.77
2022-11-09T06:05:51.607Z,15.93
2022-11-09T06:08:21.727Z,16.90
2022-11-09T06:10:54.472Z,16.23
2022-11-09T06:13:24.776Z,17.05
2022-11-09T06:15:59.555Z,18.55
2022-11-09T06:18:32.422Z,20.48
2022-11-09T06:21:03.890Z,17.60
2022-11-09T06:23:39.739Z,20.25
2022-11-09T06:26:14.240Z,18.93
2022-11-09T06:28:48.156Z,18.05
2022-11-09T06:31:20.794Z,17.40
2022-11-09T06:33:51.018Z,19.42
2022-11-09T06:36:21.301Z,18.95
2022-11-09T06:38:54.952Z,21.88
2022-11-09T06:41:27.671Z,21.30
2022-11-09T06:43:57.756Z,19.73
2022-11-09T06:46:27.783Z,23.30
2022-11-09T06:49:00.986Z,23.83
2022-11-09T06:51:31.413Z,21.35
2022-11-09T06:54:01.484Z,21.05
2022-11-09T06:56:35.948Z,21.92
2022-11-09T06:59:06.092Z,20.25
2022-11-09T07:01:38.785Z,21.98
2022-11-09T07:04:09.175Z,23.45
2022-11-09T07:06:42.903Z,18.92
2022-11-09T07:09:15.082Z,18.55
2022-11-09T07:11:47.982Z,21.55
2022-11-09T07:14:18.070Z,18.77
2022-11-09T07:16:48.347Z,18.40
2022-11-09T07:19:18.374Z,16.75
2022-11-09T07:21:48.889Z,18.63
2022-11-09T07:24:18.899Z,21.45
2022-11-09T07:26:53.551Z,19.92
2022-11-09T07:29:23.913Z,18.67
2022-11-09T07:31:54.087Z,22.25
2022-11-09T07:34:29.541Z,17.52
2022-11-09T07:36:59.611Z,21.45
2022-11-09T07:39:32.857Z,23.88
2022-11-09T07:42:08.694Z,21.45
2022-11-09T07:44:39.808Z,21.10
2022-11-09T07:47:17.137Z,26.00
2022-11-09T07:49:48.473Z,23.90
2022-11-09T07:52:18.747Z,21.80
2022-11-09T07:54:52.582Z,21.98
2022-11-09T07:57:27.773Z,17.02
2022-11-09T07:59:57.960Z,17.92
2022-11-09T08:02:28.128Z,18.08
2022-11-09T08:04:58.299Z,25.48
2022-11-09T08:07:28.395Z,24.73
2022-11-09T08:09:59.151Z,20.83
2022-11-09T08:12:36.919Z,20.00
2022-11-09T08:15:08.475Z,22.38
2022-11-09T08:17:38.921Z,23.77
2022-11-09T08:20:12.231Z,19.30
2022-11-09T08:22:44.786Z,20.67
2022-11-09T08:25:18.324Z,20.58
2022-11-09T08:27:51.301Z,20.35
2022-11-09T08:30:23.619Z,26.95
2022-11-09T08:32:55.090Z,27.83
2022-11-09T08:35:29.102Z,19.73
2022-11-09T08:38:02.782Z,23.83
2022-11-09T08:40:33.902Z,19.67
2022-11-09T08:43:09.441Z,22.30
2022-11-09T08:45:41.819Z,27.90
2022-11-09T08:48:13.721Z,26.25
2022-11-09T08:50:43.820Z,24.45
2022-11-09T08:53:16.942Z,26.05
2022-11-09T08:55:49.766Z,25.70
2022-11-09T08:58:23.184Z,23.80
2022-11-09T09:00:53.697Z,24.83
2022-11-09T09:03:24.919Z,21.67
2022-11-09T09:05:57.286Z,21.42
2022-11-09T09:08:27.403Z,20.23
2022-11-09T09:10:57.410Z,23.92
2022-11-09T09:13:30.411Z,24.75
2022-11-09T09:16:00.761Z,22.80
2022-11-09T09:18:30.859Z,26.17
2022-11-09T09:21:03.845Z,21.90
2022-11-09T09:23:35.580Z,21.65
2022-11-09T09:26:05.816Z,22.08
2022-11-09T09:28:39.152Z,20.95
2022-11-09T09:31:18.103Z,21.58
2022-11-09T09:33:49.410Z,20.88
2022-11-09T09:36:24.202Z,19.75
2022-11-09T09:38:54.649Z,19.73
2022-11-09T09:41:30.715Z,19.58
2022-11-09T09:44:11.801Z,18.35
2022-11-09T09:46:48.909Z,17.65
2022-11-09T09:49:23.974Z,19.42
2022-11-09T09:51:58.152Z,21.98
2022-11-09T09:54:33.628Z,21.38
2022-11-09T09:57:05.022Z,19.70
2022-11-09T09:59:43.426Z,18.00
2022-11-09T10:02:23.729Z,19.70
2022-11-09T10:04:55.322Z,20.00
2022-11-09T10:07:31.370Z,21.95
2022-11-09T10:10:24.040Z,20.80
2022-11-09T10:13:18.561Z,22.55
2022-11-09T10:15:57.384Z,20.50
2022-11-09T10:18:37.415Z,19.88
2022-11-09T10:21:19.803Z,17.67
2022-11-09T10:24:05.880Z,19.02
2022-11-09T10:26:44.139Z,17.25
2022-11-09T10:29:24.970Z,18.00
2022-11-09T10:32:01.455Z,17.38
2022-11-09T10:34:35.702Z,20.50
2022-11-09T10:37:13.596Z,20.67
2022-11-09T10:39:50.326Z,17.95
2022-11-09T10:42:20.453Z,21.42
2022-11-09T10:44:50.888Z,21.38
2022-11-09T10:47:24.236Z,23.70
2022-11-09T10:50:10.268Z,23.65
2022-11-09T10:52:47.502Z,28.55
2022-11-09T10:55:30.777Z,22.27
2022-11-09T10:58:03.319Z,21.17
2022-11-09T11:00:33.934Z,24.65
2022-11-09T11:03:15.061Z,24.38
2022-11-09T11:05:45.334Z,21.60
2022-11-09T11:08:27.594Z,24.05
2022-11-09T11:11:37.741Z,23.10
2022-11-09T11:14:22.450Z,21.65
2022-11-09T11:16:54.452Z,23.15
2022-11-09T11:19:37.178Z,29.67
2022-11-09T11:22:27.586Z,24.92
2022-11-09T11:25:00.041Z,24.15
2022-11-09T11:27:40.819Z,25.45
2022-11-09T11:30:15.863Z,34.53
2022-11-09T11:32:50.377Z,34.50
2022-11-09T11:35:32.582Z,28.63
2022-11-09T11:38:14.918Z,24.42
2022-11-09T11:40:52.485Z,26.08
2022-11-09T11:43:32.682Z,29.15
2022-11-09T11:46:09.982Z,29.58
2022-11-09T11:49:03.089Z,33.25
2022-11-09T11:51:43.096Z,27.42
2022-11-09T11:54:23.120Z,29.85
2022-11-09T11:57:01.407Z,33.97
2022-11-09T12:00:00.704Z,25.42
2022-11-09T12:03:05.700Z,30.02
2022-11-09T12:06:06.158Z,30.90
2022-11-09T12:08:52.729Z,30.13
2022-11-09T12:11:44.978Z,40.42
2022-11-09T12:14:24.685Z,29.80
2022-11-09T12:17:04.022Z,30.63
2022-11-09T12:19:53.178Z,33.03
2022-11-09T12:22:34.964Z,34.25
2022-11-09T12:25:19.856Z,32.85
2022-11-09T12:28:09.541Z,29.25
2022-11-09T12:30:50.765Z,34.08
2022-11-09T12:33:34.244Z,27.58
2022-11-09T12:36:14.944Z,36.78
2022-11-09T12:38:55.462Z,33.58
2022-11-09T12:41:33.165Z,33.22
2022-11-09T12:44:11.919Z,30.17
2022-11-09T12:46:51.156Z,33.30
2022-11-09T12:49:33.868Z,34.13
2022-11-09T12:52:04.195Z,33.90
2022-11-09T12:54:37.101Z,32.22
2022-11-09T12:57:13.122Z,39.67
2022-11-09T12:59:51.461Z,39.75
2022-11-09T13:02:32.848Z,34.28
2022-11-09T13:05:05.307Z,37.13
2022-11-09T13:07:52.347Z,35.22
2022-11-09T13:10:30.930Z,41.15
2022-11-09T13:13:25.285Z,37.30
2022-11-09T13:16:14.719Z,34.53
2022-11-09T13:18:54.151Z,37.60
2022-11-09T13:21:41.953Z,34.15
2022-11-09T13:24:59.863Z,40.67
2022-11-09T13:27:53.942Z,33.95
2022-11-09T13:30:48.428Z,37.42
2022-11-09T13:33:24.966Z,36.08
2022-11-09T13:36:20.643Z,37.97
2022-11-09T13:39:41.933Z,37.28
2022-11-09T13:42:31.811Z,38.83
2022-11-09T13:45:29.968Z,34.20
2022-11-09T13:48:06.487Z,35.95
2022-11-09T13:50:38.363Z,35.42
2022-11-09T13:53:32.537Z,30.83
2022-11-09T13:56:17.696Z,34.13
2022-11-09T13:58:51.256Z,39.05
2022-11-09T14:01:30.474Z,37.28
2022-11-09T14:04:04.716Z,38.25
2022-11-09T14:06:36.595Z,40.63
2022-11-09T14:09:06.973Z,33.08
2022-11-09T14:12:01.380Z,33.55
2022-11-09T14:17:26.118Z,34.50
2022-11-09T14:20:22.182Z,32.28
2022-11-09T14:22:52.372Z,33.63
2022-11-09T14:25:24.505Z,37.75
2022-11-09T14:28:00.456Z,34.47
2022-11-09T14:30:32.576Z,36.67
2022-11-09T14:33:02.697Z,36.35
2022-11-09T14:35:36.868Z,34.70
2022-11-09T14:38:21.260Z,37.08
2022-11-09T14:40:53.261Z,35.65
2022-11-09T14:43:32.205Z,37.47
2022-11-09T14:46:05.701Z,38.72
2022-11-09T14:48:37.152Z,43.97
2022-11-09T14:51:14.754Z,38.38
2022-11-09T14:53:46.063Z,38.55
2022-11-09T14:56:20.617Z,46.15
2022-11-09T14:58:51.542Z,41.75
2022-11-09T15:01:25.803Z,43.45
2022-11-09T15:04:11.249Z,41.88
2022-11-09T15:06:52.612Z,35.13
2022-11-09T15:09:25.126Z,42.47
2022-11-09T15:11:56.439Z,43.70
2022-11-09T15:14:29.840Z,43.80
2022-11-09T15:17:03.415Z,46.25
2022-11-09T15:19:36.310Z,44.33
2022-11-09T15:22:29.671Z,48.05
2022-11-09T15:24:59.806Z,42.05
2022-11-09T15:27:33.392Z,41.63
2022-11-09T15:30:04.720Z,43.53
2022-11-09T15:32:37.753Z,49.95
2022-11-09T15:35:19.231Z,43.80
2022-11-09T15:37:56.616Z,47.17
2022-11-09T15:40:28.265Z,45.58
2022-11-09T15:42:58.534Z,41.35
2022-11-09T15:45:31.470Z,45.67
2022-11-09T15:48:01.789Z,44.83
2022-11-09T15:50:31.894Z,45.10
2022-11-09T15:53:04.621Z,48.50
2022-11-09T15:55:34.777Z,49.25
2022-11-09T15:58:04.824Z,43.13
2022-11-09T16:00:35.237Z,44.83
2022-11-09T16:03:08.454Z,50.88
2022-11-09T16:05:39.000Z,48.80
2022-11-09T16:08:11.926Z,51.88
2022-11-09T16:10:44.579Z,46.70
2022-11-09T16:13:14.886Z,49.78
2022-11-09T16:15:47.065Z,52.28
2022-11-09T16:18:22.930Z,53.38
2022-11-09T16:20:56.254Z,51.70
2022-11-09T16:23:29.570Z,49.33
2022-11-09T16:25:59.815Z,51.47
2022-11-09T16:28:30.648Z,54.30
2022-11-09T16:31:04.112Z,52.65
2022-11-09T16:33:34.588Z,53.78
2022-11-09T16:36:09.094Z,56.33
2022-11-09T16:38:46.203Z,55.40
2022-11-09T16:41:19.917Z,58.08
2022-11-09T16:43:52.878Z,63.05
2022-11-09T16:46:26.112Z,57.72
2022-11-09T16:48:58.256Z,55.42
2022-11-09T16:51:28.464Z,57.80
2022-11-09T16:54:01.891Z,50.03
2022-11-09T16:56:33.760Z,55.70
2022-11-09T16:59:04.754Z,49.40
2022-11-09T17:01:35.087Z,52.97
2022-11-09T17:04:05.647Z,51.72
2022-11-09T17:06:36.520Z,52.53
2022-11-09T17:09:12.686Z,55.83
2022-11-09T17:11:43.225Z,51.38
2022-11-09T17:14:13.685Z,53.17
2022-11-09T17:16:44.969Z,55.75
2022-11-09T17:19:15.760Z,55.15
2022-11-09T17:21:46.122Z,56.75
2022-11-09T17:24:19.261Z,53.70
2022-11-09T17:26:49.592Z,53.97
2022-11-09T17:29:20.127Z,59.92
2022-11-09T17:31:50.584Z,56.35
2022-11-09T17:34:21.629Z,63.28
2022-11-09T17:37:07.580Z,58.00
2022-11-09T17:39:40.823Z,61.65
2022-11-09T17:42:11.506Z,56.50
2022-11-09T17:44:42.037Z,56.90
2022-11-09T17:47:12.412Z,62.97
2022-11-09T17:49:43.403Z,68.53
2022-11-09T17:52:15.716Z,66.32
2022-11-09T17:54:48.832Z,58.60
2022-11-09T17:57:19.611Z,70.43
2022-11-09T17:59:50.642Z,67.57
2022-11-09T18:02:21.570Z,78.47
2022-11-09T18:04:52.137Z,81.28
2022-11-09T18:07:22.975Z,75.80
2022-11-09T18:09:56.349Z,76.43
2022-11-09T18:12:29.396Z,74.38
2022-11-09T18:14:59.848Z,71.87
2022-11-09T18:17:30.326Z,71.10
2022-11-09T18:20:00.813Z,68.30
2022-11-09T18:22:31.136Z,76.70
2022-11-09T18:25:05.058Z,65.57
2022-11-09T18:27:35.402Z,65.18
2022-11-09T18:30:07.601Z,67.47
2022-11-09T18:32:37.875Z,64.35
2022-11-09T18:35:08.959Z,73.95
2022-11-09T18:37:39.785Z,74.00
2022-11-09T18:40:16.672Z,78.05
2022-11-09T18:42:46.959Z,76.18
2022-11-09T18:45:17.159Z,82.25
2022-11-09T18:47:47.316Z,79.18
2022-11-09T18:50:18.247Z,78.15
2022-11-09T18:52:48.564Z,75.13
2022-11-09T18:55:21.739Z,80.95
2022-11-09T18:57:52.142Z,73.88
2022-11-09T19:00:22.671Z,89.72
2022-11-09T19:02:52.912Z,82.07
2022-11-09T19:05:23.311Z,83.72
2022-11-09T19:07:53.663Z,77.35
2022-11-09T19:10:26.566Z,77.47
2022-11-09T19:12:56.656Z,69.95
2022-11-09T19:15:26.847Z,71.78
2022-11-09T19:17:57.280Z,70.88
2022-11-09T19:20:27.584Z,67.85
2022-11-09T19:22:57.729Z,67.93
2022-11-09T19:25:30.561Z,70.57
2022-11-09T19:28:04.705Z,69.78
2022-11-09T19:30:34.902Z,63.80
2022-11-09T19:33:05.364Z,71.57
2022-11-09T19:35:35.540Z,68.00
2022-11-09T19:38:06.645Z,64.68
2022-11-09T19:40:40.168Z,62.33
2022-11-09T19:43:10.475Z,59.63
2022-11-09T19:45:43.374Z,58.70
2022-11-09T19:48:13.593Z,63.10
2022-11-09T19:50:49.991Z,63.83
2022-11-09T19:53:20.526Z,58.00
2022-11-09T19:55:56.300Z,58.28
2022-11-09T19:58:27.003Z,55.60
2022-11-09T20:01:04.753Z,52.22
2022-11-09T20:03:34.955Z,51.22
2022-11-09T20:06:06.519Z,57.95
2022-11-09T20:08:37.502Z,54.30
2022-11-09T20:11:12.261Z,50.55
2022-11-09T20:13:40.936Z,50.10
2022-11-09T20:16:13.119Z,45.38
2022-11-09T20:18:43.407Z,52.05
2022-11-09T20:21:13.538Z,51.45
2022-11-09T20:23:43.620Z,49.15
2022-11-09T20:26:16.396Z,53.13
2022-11-09T20:28:46.573Z,49.85
2022-11-09T20:31:19.504Z,44.55
2022-11-09T20:33:50.279Z,46.13
2022-11-09T20:36:21.478Z,48.92
2022-11-09T20:38:52.095Z,45.95
2022-11-09T20:41:25.727Z,43.72
2022-11-09T20:43:56.470Z,48.67
2022-11-09T20:46:32.705Z,47.13
2022-11-09T20:49:09.328Z,50.60
2022-11-09T20:51:39.692Z,42.88
2022-11-09T20:54:09.860Z,46.15
2022-11-09T20:56:42.642Z,44.20
2022-11-09T20:59:13.002Z,40.70
2022-11-09T21:01:43.200Z,41.33
2022-11-09T21:04:13.344Z,45.50
2022-11-09T21:06:43.486Z,39.70
2022-11-09T21:09:13.633Z,49.88
2022-11-09T21:11:58.546Z,44.30
2022-11-09T21:14:28.747Z,46.42
2022-11-09T21:16:58.742Z,45.50
2022-11-09T21:19:28.904Z,45.92
2022-11-09T21:21:59.062Z,42.65
2022-11-09T21:24:41.595Z,41.00
2022-11-09T21:27:27.757Z,43.20
2022-11-09T21:29:58.430Z,44.13
2022-11-09T21:32:30.715Z,41.08
2022-11-09T21:35:00.759Z,41.20
2022-11-09T21:37:31.136Z,41.40
2022-11-09T21:40:01.280Z,40.38
2022-11-09T21:42:34.085Z,44.08
2022-11-09T21:45:04.184Z,40.28
2022-11-09T21:47:34.261Z,43.95
2022-11-09T21:50:08.328Z,44.75
2022-11-09T21:52:42.388Z,42.17
2022-11-09T21:55:12.620Z,43.60
2022-11-09T21:57:45.452Z,39.15
2022-11-09T22:00:17.626Z,43.53
2022-11-09T22:02:47.744Z,43.10
2022-11-09T22:05:22.749Z,39.13
2022-11-09T22:07:53.460Z,41.75
2022-11-09T22:10:23.619Z,41.28
2022-11-09T22:13:08.677Z,36.08
2022-11-09T22:15:56.650Z,41.70
2022-11-09T22:18:39.146Z,41.72
2022-11-09T22:21:09.523Z,41.80
2022-11-09T22:23:39.647Z,37.33
2022-11-09T22:26:09.745Z,36.15
2022-11-09T22:28:42.695Z,38.58
2022-11-09T22:31:13.722Z,37.97
2022-11-09T22:33:43.859Z,44.03
2022-11-09T22:36:16.600Z,37.30
2022-11-09T22:38:47.276Z,37.90
2022-11-09T22:41:18.149Z,35.80
2022-11-09T22:43:51.145Z,37.00
2022-11-09T22:46:21.356Z,42.17
2022-11-09T22:48:51.535Z,37.72
2022-11-09T22:51:22.343Z,40.30
2022-11-09T22:53:53.253Z,39.42
2022-11-09T22:56:23.341Z,37.88
2022-11-09T22:58:57.330Z,44.90
2022-11-09T23:03:57.459Z,36.30
2022-11-09T23:06:27.635Z,40.45
2022-11-09T23:08:57.820Z,41.78
2022-11-09T23:11:28.446Z,39.00
2022-11-09T23:14:01.357Z,36.22
2022-11-09T23:16:31.559Z,40.58
2022-11-09T23:18:59.064Z,38.78
2022-11-09T23:21:31.648Z,36.47
2022-11-09T23:24:04.220Z,38.88
2022-11-09T23:26:32.726Z,40.22
2022-11-09T23:29:06.032Z,37.70
2022-11-09T23:31:38.593Z,41.77
2022-11-09T23:34:10.174Z,42.90
2022-11-09T23:36:40.472Z,39.92
2022-11-09T23:39:11.622Z,37.75
2022-11-09T23:41:41.611Z,36.00
2022-11-09T23:44:14.462Z,38.53
2022-11-09T23:46:44.533Z,40.70
2022-11-09T23:49:14.626Z,36.53
2022-11-09T23:51:44.719Z,36.70
2022-11-09T23:54:14.803Z,38.50
2022-11-09T23:56:44.877Z,37.85
2022-11-09T23:59:17.497Z,38.15
